createdAt,value
2023-01-17T00:01:30.480Z,0.90
2023-01-17T00:04:15.905Z,0.90
2023-01-17T00:07:01.273Z,0.90
2023-01-17T00:10:00.422Z,0.90
2023-01-17T00:12:29.803Z,1.00
2023-01-17T00:14:58.528Z,1.00
2023-01-17T00:17:27.537Z,1.00
2023-01-17T00:20:13.530Z,0.90
2023-01-17T00:23:01.179Z,0.90
2023-01-17T00:25:55.419Z,0.90
2023-01-17T00:28:22.165Z,0.80
2023-01-17T00:30:48.843Z,0.80
2023-01-17T00:33:15.535Z,0.80
2023-01-17T00:35:42.179Z,0.80
2023-01-17T00:38:11.573Z,0.80
2023-01-17T00:40:41.182Z,0.80
2023-01-17T00:43:28.116Z,0.80
2023-01-17T00:46:13.516Z,0.80
2023-01-17T00:48:59.071Z,0.80
2023-01-17T00:51:45.063Z,0.80
2023-01-17T00:54:30.429Z,0.80
2023-01-17T00:57:16.422Z,0.80
2023-01-17T01:00:01.721Z,0.80
2023-01-17T01:02:47.867Z,0.80
2023-01-17T01:05:33.502Z,0.70
2023-01-17T01:08:19.411Z,0.70
2023-01-17T01:11:06.052Z,0.70
2023-01-17T01:13:51.983Z,0.70
2023-01-17T01:16:38.415Z,0.60
2023-01-17T01:19:24.796Z,0.60
2023-01-17T01:22:10.343Z,0.70
2023-01-17T01:24:56.117Z,0.70
2023-01-17T01:27:41.439Z,0.80
2023-01-17T01:30:27.471Z,0.80
2023-01-17T01:33:13.043Z,0.80
2023-01-17T01:35:41.784Z,0.80
2023-01-17T01:38:08.594Z,0.90
2023-01-17T01:40:35.234Z,0.90
2023-01-17T01:43:05.638Z,1.00
2023-01-17T01:45:33.207Z,1.00
2023-01-17T01:48:05.561Z,1.10
2023-01-17T01:50:33.950Z,1.10
2023-01-17T01:53:03.444Z,1.20
2023-01-17T01:55:40.404Z,1.30
2023-01-17T01:58:24.217Z,1.30
2023-01-17T02:00:51.508Z,1.30
2023-01-17T02:03:22.810Z,1.40
2023-01-17T02:05:49.689Z,1.50
2023-01-17T02:08:23.077Z,1.40
2023-01-17T02:10:50.736Z,1.50
2023-01-17T02:13:20.319Z,1.50
2023-01-17T02:15:56.003Z,1.50
2023-01-17T02:18:29.397Z,1.50
2023-01-17T02:21:25.882Z,1.60
2023-01-17T02:24:14.252Z,1.70
2023-01-17T02:27:05.287Z,1.80
2023-01-17T02:30:09.450Z,1.80
2023-01-17T02:33:00.693Z,1.80
2023-01-17T02:35:39.518Z,1.90
2023-01-17T02:38:06.138Z,2.00
2023-01-17T02:40:44.550Z,2.00
2023-01-17T02:43:14.799Z,2.00
2023-01-17T02:45:42.093Z,2.10
2023-01-17T02:48:13.183Z,2.10
2023-01-17T02:51:05.958Z,2.10
2023-01-17T02:53:43.016Z,2.10
2023-01-17T02:56:26.853Z,2.10
2023-01-17T02:59:31.303Z,2.20
2023-01-17T03:02:11.565Z,2.10
2023-01-17T03:05:03.729Z,2.10
2023-01-17T03:07:31.980Z,2.20
2023-01-17T03:10:02.387Z,2.10
2023-01-17T03:12:30.633Z,2.10
2023-01-17T03:14:57.771Z,2.20
2023-01-17T03:17:28.558Z,2.10
2023-01-17T03:19:55.329Z,2.10
2023-01-17T03:22:22.013Z,2.00
2023-01-17T03:24:48.662Z,2.00
2023-01-17T03:27:15.326Z,1.70
2023-01-17T03:29:41.916Z,1.60
2023-01-17T03:32:08.535Z,1.50
2023-01-17T03:34:35.132Z,1.40
2023-01-17T03:37:01.800Z,1.20
2023-01-17T03:39:28.479Z,1.10
2023-01-17T03:41:55.123Z,0.90
2023-01-17T03:44:21.816Z,0.80
2023-01-17T03:46:48.483Z,0.80
2023-01-17T03:49:16.636Z,0.80
2023-01-17T03:51:43.358Z,0.70
2023-01-17T03:54:10.091Z,0.70
2023-01-17T03:56:36.677Z,0.70
2023-01-17T03:59:03.396Z,0.80
2023-01-17T04:01:30.148Z,0.80
2023-01-17T04:03:56.875Z,0.80
2023-01-17T04:06:23.590Z,0.90
2023-01-17T04:08:50.234Z,1.00
2023-01-17T04:11:16.935Z,1.00
2023-01-17T04:13:43.607Z,1.00
2023-01-17T04:16:15.599Z,1.10
2023-01-17T04:18:42.401Z,1.00
2023-01-17T04:21:09.166Z,1.00
2023-01-17T04:23:35.901Z,0.90
2023-01-17T04:26:03.611Z,0.80
2023-01-17T04:28:31.669Z,0.80
2023-01-17T04:30:59.734Z,0.70
2023-01-17T04:33:26.443Z,0.60
2023-01-17T04:35:54.231Z,0.60
2023-01-17T04:38:21.266Z,0.50
2023-01-17T04:40:48.592Z,0.40
2023-01-17T04:43:16.049Z,0.40
2023-01-17T04:45:42.861Z,0.30
2023-01-17T04:48:12.485Z,0.30
2023-01-17T04:50:39.750Z,0.20
2023-01-17T04:53:06.524Z,0.20
2023-01-17T04:55:33.268Z,0.20
2023-01-17T04:57:59.988Z,0.10
2023-01-17T05:00:26.619Z,0.10
2023-01-17T05:02:53.447Z,0.10
2023-01-17T05:05:20.193Z,0.10
2023-01-17T05:07:54.034Z,0.10
2023-01-17T05:10:20.679Z,0.00
2023-01-17T05:12:57.381Z,0.00
2023-01-17T05:15:24.837Z,0.00
2023-01-17T05:17:52.649Z,0.00
2023-01-17T05:20:25.846Z,0.00
2023-01-17T05:22:55.409Z,0.00
2023-01-17T05:25:24.404Z,0.00
2023-01-17T05:27:51.349Z,0.00
2023-01-17T05:30:18.634Z,0.00
2023-01-17T05:32:49.670Z,0.00
2023-01-17T05:35:19.565Z,-0.10
2023-01-17T05:37:49.156Z,-0.10
2023-01-17T05:40:27.551Z,-0.10
2023-01-17T05:42:55.883Z,-0.10
2023-01-17T05:45:24.858Z,-0.10
2023-01-17T05:47:54.160Z,-0.20
2023-01-17T05:50:24.309Z,-0.20
2023-01-17T05:52:53.118Z,-0.10
2023-01-17T05:55:20.925Z,-0.20
2023-01-17T05:57:47.591Z,-0.10
2023-01-17T06:00:15.032Z,-0.10
2023-01-17T06:02:42.018Z,0.00
2023-01-17T06:05:09.067Z,-0.10
2023-01-17T06:07:35.795Z,-0.10
2023-01-17T06:10:02.526Z,-0.10
2023-01-17T06:12:29.225Z,-0.10
2023-01-17T06:14:55.908Z,-0.10
2023-01-17T06:17:22.596Z,0.00
2023-01-17T06:19:49.263Z,0.00
2023-01-17T06:22:15.971Z,-0.10
2023-01-17T06:24:42.619Z,-0.10
2023-01-17T06:27:10.524Z,-0.10
2023-01-17T06:29:37.869Z,-0.20
2023-01-17T06:32:04.810Z,-0.10
2023-01-17T06:34:31.725Z,-0.20
2023-01-17T06:36:58.713Z,-0.20
2023-01-17T06:39:25.371Z,-0.20
2023-01-17T06:41:52.204Z,-0.20
2023-01-17T06:44:18.865Z,-0.20
2023-01-17T06:46:47.544Z,-0.20
2023-01-17T06:49:14.975Z,-0.10
2023-01-17T06:51:43.657Z,-0.10
2023-01-17T06:54:10.740Z,-0.10
2023-01-17T06:56:38.174Z,-0.10
2023-01-17T06:59:05.077Z,-0.10
2023-01-17T07:01:32.007Z,-0.20
2023-01-17T07:03:58.925Z,-0.20
2023-01-17T07:06:28.718Z,-0.20
2023-01-17T07:08:56.441Z,-0.20
2023-01-17T07:11:23.797Z,-0.30
2023-01-17T07:13:50.553Z,-0.40
2023-01-17T07:16:17.403Z,-0.40
2023-01-17T07:18:44.293Z,-0.50
2023-01-17T07:21:15.035Z,-0.60
2023-01-17T07:23:42.169Z,-0.60
2023-01-17T07:26:08.825Z,-0.60
2023-01-17T07:28:35.503Z,-0.70
2023-01-17T07:31:08.258Z,-0.70
2023-01-17T07:33:35.380Z,-0.70
2023-01-17T07:36:07.346Z,-0.60
2023-01-17T07:38:34.459Z,-0.60
2023-01-17T07:41:01.301Z,-0.60
2023-01-17T07:43:28.077Z,-0.60
2023-01-17T07:45:54.945Z,-0.60
2023-01-17T07:48:24.145Z,-0.60
2023-01-17T07:50:58.293Z,-0.50
2023-01-17T07:53:27.304Z,-0.60
2023-01-17T07:55:54.286Z,-0.60
2023-01-17T07:58:21.272Z,-0.60
2023-01-17T08:00:48.277Z,-0.60
2023-01-17T08:03:17.304Z,-0.60
2023-01-17T08:05:52.871Z,-0.60
2023-01-17T08:08:19.624Z,-0.50
2023-01-17T08:10:46.303Z,-0.50
2023-01-17T08:13:12.979Z,-0.40
2023-01-17T08:15:39.659Z,-0.30
2023-01-17T08:18:06.325Z,-0.10
2023-01-17T08:20:32.908Z,0.10
2023-01-17T08:22:59.648Z,0.30
2023-01-17T08:25:26.759Z,0.40
2023-01-17T08:27:58.028Z,0.60
2023-01-17T08:30:26.627Z,0.70
2023-01-17T08:32:53.641Z,0.70
2023-01-17T08:35:21.347Z,0.80
2023-01-17T08:37:52.896Z,0.90
2023-01-17T08:40:19.796Z,0.90
2023-01-17T08:42:54.762Z,0.90
2023-01-17T08:45:21.536Z,0.90
2023-01-17T08:47:48.263Z,0.90
2023-01-17T08:50:15.338Z,1.00
2023-01-17T08:52:42.046Z,1.00
2023-01-17T08:55:10.142Z,1.00
2023-01-17T08:57:36.965Z,1.10
2023-01-17T09:00:03.890Z,1.20
2023-01-17T09:02:30.495Z,1.30
2023-01-17T09:04:57.211Z,1.50
2023-01-17T09:07:24.436Z,1.60
2023-01-17T09:09:52.668Z,1.80
2023-01-17T09:12:22.869Z,1.90
2023-01-17T09:14:49.630Z,2.00
2023-01-17T09:17:16.362Z,2.00
2023-01-17T09:19:47.681Z,2.10
2023-01-17T09:22:14.712Z,2.20
2023-01-17T09:24:42.048Z,2.30
2023-01-17T09:27:08.844Z,2.30
2023-01-17T09:29:35.647Z,2.30
2023-01-17T09:32:02.354Z,2.40
2023-01-17T09:34:30.462Z,2.40
2023-01-17T09:36:57.179Z,2.40
2023-01-17T09:39:23.986Z,2.40
2023-01-17T09:42:22.811Z,2.40
2023-01-17T09:44:51.655Z,2.50
2023-01-17T09:47:23.751Z,2.50
2023-01-17T09:49:52.572Z,2.50
2023-01-17T09:52:23.253Z,2.50
2023-01-17T09:54:50.931Z,2.60
2023-01-17T09:57:34.735Z,2.60
2023-01-17T10:00:33.577Z,2.70
2023-01-17T10:03:37.812Z,2.70
2023-01-17T10:06:15.868Z,2.70
2023-01-17T10:08:55.142Z,2.70
2023-01-17T10:11:55.832Z,2.90
2023-01-17T10:14:32.264Z,2.90
2023-01-17T10:17:16.380Z,3.10
2023-01-17T10:20:20.218Z,3.20
2023-01-17T10:23:17.993Z,3.30
2023-01-17T10:25:49.371Z,3.40
2023-01-17T10:28:37.674Z,3.50
2023-01-17T10:31:34.898Z,3.60
2023-01-17T10:34:06.744Z,3.60
2023-01-17T10:36:42.151Z,3.70
2023-01-17T10:39:30.741Z,3.70
2023-01-17T10:42:13.079Z,3.80
2023-01-17T10:45:04.978Z,3.80
2023-01-17T10:47:36.404Z,3.90
2023-01-17T10:50:05.302Z,3.90
2023-01-17T10:52:57.753Z,3.80
2023-01-17T10:55:34.141Z,3.70
2023-01-17T10:58:01.428Z,3.80
2023-01-17T11:00:51.283Z,3.90
2023-01-17T11:03:20.845Z,3.90
2023-01-17T11:06:16.614Z,4.00
2023-01-17T11:08:57.295Z,4.10
2023-01-17T11:11:31.671Z,4.00
2023-01-17T11:14:07.585Z,4.00
2023-01-17T11:16:35.881Z,4.00
2023-01-17T11:19:17.019Z,3.80
2023-01-17T11:22:01.620Z,3.60
2023-01-17T11:24:34.616Z,3.40
2023-01-17T11:27:05.098Z,3.30
2023-01-17T11:29:36.809Z,3.30
2023-01-17T11:32:22.283Z,3.40
2023-01-17T11:35:18.318Z,3.30
2023-01-17T11:38:16.379Z,3.40
2023-01-17T11:40:44.707Z,3.50
2023-01-17T11:43:11.427Z,3.60
2023-01-17T11:45:39.337Z,3.80
2023-01-17T11:48:08.689Z,3.80
2023-01-17T11:50:38.700Z,4.00
2023-01-17T11:53:36.907Z,4.20
2023-01-17T11:56:28.004Z,4.50
2023-01-17T11:59:26.589Z,4.60
2023-01-17T12:02:19.124Z,4.90
2023-01-17T12:05:07.694Z,5.00
2023-01-17T12:07:53.167Z,5.00
2023-01-17T12:10:34.613Z,4.70
2023-01-17T12:13:23.216Z,4.60
2023-01-17T12:16:30.990Z,4.60
2023-01-17T12:19:15.035Z,4.60
2023-01-17T12:21:46.243Z,4.50
2023-01-17T12:24:36.638Z,4.40
2023-01-17T12:27:42.624Z,4.40
2023-01-17T12:30:30.781Z,4.50
2023-01-17T12:33:10.589Z,4.50
2023-01-17T12:35:48.315Z,4.60
2023-01-17T12:38:32.052Z,4.70
2023-01-17T12:41:24.268Z,4.80
2023-01-17T12:43:56.285Z,4.70
2023-01-17T12:46:44.218Z,4.70
2023-01-17T12:49:36.121Z,4.70
2023-01-17T12:52:35.290Z,4.70
2023-01-17T12:55:10.070Z,4.60
2023-01-17T12:57:47.634Z,4.40
2023-01-17T13:00:19.848Z,4.50
2023-01-17T13:03:08.425Z,4.40
2023-01-17T13:05:41.748Z,4.20
2023-01-17T13:08:27.283Z,4.10
2023-01-17T13:10:59.130Z,4.00
2023-01-17T13:13:27.965Z,3.90
2023-01-17T13:16:11.230Z,3.80
2023-01-17T13:18:43.761Z,3.90
2023-01-17T13:21:16.183Z,3.90
2023-01-17T13:24:19.919Z,3.90
2023-01-17T13:26:55.723Z,3.90
2023-01-17T13:29:32.638Z,3.90
2023-01-17T13:32:27.634Z,4.00
2023-01-17T13:35:12.990Z,4.10
2023-01-17T13:38:01.002Z,3.90
2023-01-17T13:40:54.921Z,3.90
2023-01-17T13:43:33.816Z,3.90
2023-01-17T13:46:06.537Z,3.70
2023-01-17T13:48:38.319Z,3.70
2023-01-17T13:51:06.311Z,3.70
2023-01-17T13:53:36.728Z,3.70
2023-01-17T13:56:12.393Z,3.70
2023-01-17T13:58:47.050Z,3.80
2023-01-17T14:01:13.932Z,3.70
2023-01-17T14:03:46.533Z,3.70
2023-01-17T14:06:35.368Z,3.70
2023-01-17T14:09:08.165Z,3.70
2023-01-17T14:11:37.089Z,3.80
2023-01-17T14:14:42.074Z,3.80
2023-01-17T14:17:22.639Z,3.80
2023-01-17T14:19:55.787Z,3.70
2023-01-17T14:22:25.291Z,3.80
2023-01-17T14:25:09.995Z,3.80
2023-01-17T14:27:59.982Z,3.80
2023-01-17T14:30:27.808Z,3.80
2023-01-17T14:33:08.657Z,3.80
2023-01-17T14:35:48.161Z,3.60
2023-01-17T14:38:29.923Z,3.60
2023-01-17T14:41:10.441Z,3.50
2023-01-17T14:43:41.730Z,3.50
2023-01-17T14:46:15.467Z,3.50
2023-01-17T14:48:42.226Z,3.50
2023-01-17T14:51:22.785Z,3.40
2023-01-17T14:53:57.365Z,3.50
2023-01-17T14:56:26.379Z,3.50
2023-01-17T14:59:21.972Z,3.50
2023-01-17T15:02:07.495Z,3.40
2023-01-17T15:04:39.361Z,3.30
2023-01-17T15:07:06.837Z,3.20
2023-01-17T15:09:36.848Z,3.30
2023-01-17T15:12:04.123Z,3.20
2023-01-17T15:14:37.146Z,3.20
2023-01-17T15:17:26.515Z,3.20
2023-01-17T15:19:57.564Z,3.10
2023-01-17T15:22:26.218Z,3.10
2023-01-17T15:24:54.350Z,3.10
2023-01-17T15:27:21.565Z,3.10
2023-01-17T15:29:48.620Z,3.10
2023-01-17T15:32:20.872Z,3.00
2023-01-17T15:34:49.520Z,2.90
2023-01-17T15:37:24.508Z,2.80
2023-01-17T15:39:51.230Z,2.80
2023-01-17T15:42:27.266Z,2.70
2023-01-17T15:44:56.757Z,2.70
2023-01-17T15:47:31.272Z,2.70
2023-01-17T15:49:58.670Z,2.70
2023-01-17T15:52:25.461Z,2.60
2023-01-17T15:54:54.506Z,2.60
2023-01-17T15:57:25.987Z,2.60
2023-01-17T16:00:05.978Z,2.60
2023-01-17T16:02:42.987Z,2.60
2023-01-17T16:05:27.317Z,2.50
2023-01-17T16:07:54.998Z,2.50
2023-01-17T16:10:31.645Z,2.50
2023-01-17T16:12:59.321Z,2.50
2023-01-17T16:15:27.449Z,2.50
2023-01-17T16:18:03.245Z,2.40
2023-01-17T16:20:39.949Z,2.40
2023-01-17T16:23:06.682Z,2.30
2023-01-17T16:25:33.393Z,2.40
2023-01-17T16:28:00.513Z,2.30
2023-01-17T16:30:28.401Z,2.30
2023-01-17T16:32:56.590Z,2.30
2023-01-17T16:35:32.829Z,2.30
2023-01-17T16:38:02.517Z,2.30
2023-01-17T16:40:32.135Z,2.40
2023-01-17T16:43:00.516Z,2.40
2023-01-17T16:45:27.538Z,2.40
2023-01-17T16:47:54.605Z,2.40
2023-01-17T16:50:23.660Z,2.40
2023-01-17T16:52:54.566Z,2.30
2023-01-17T16:55:23.620Z,2.30
2023-01-17T16:57:52.538Z,2.40
2023-01-17T17:00:20.063Z,2.40
2023-01-17T17:02:50.942Z,2.40
2023-01-17T17:05:18.214Z,2.30
2023-01-17T17:07:46.233Z,2.40
2023-01-17T17:10:15.331Z,2.30
2023-01-17T17:12:42.649Z,2.30
2023-01-17T17:15:10.719Z,2.30
2023-01-17T17:17:39.401Z,2.30
2023-01-17T17:20:07.493Z,2.30
2023-01-17T17:22:34.233Z,2.30
2023-01-17T17:25:00.907Z,2.30
2023-01-17T17:27:27.846Z,2.40
2023-01-17T17:29:55.211Z,2.40
2023-01-17T17:32:21.912Z,2.40
2023-01-17T17:34:50.760Z,2.30
2023-01-17T17:37:17.630Z,2.30
2023-01-17T17:39:45.199Z,2.30
2023-01-17T17:42:12.485Z,2.20
2023-01-17T17:44:39.142Z,2.00
2023-01-17T17:47:05.808Z,1.90
2023-01-17T17:49:32.524Z,1.90
2023-01-17T17:52:07.228Z,1.70
2023-01-17T17:54:34.440Z,1.70
2023-01-17T17:57:01.133Z,1.60
2023-01-17T17:59:27.978Z,1.60
2023-01-17T18:01:54.677Z,1.60
2023-01-17T18:04:22.194Z,1.60
2023-01-17T18:06:48.858Z,1.70
2023-01-17T18:09:15.576Z,1.60
2023-01-17T18:11:43.608Z,1.60
2023-01-17T18:14:13.740Z,1.50
2023-01-17T18:16:43.206Z,1.60
2023-01-17T18:19:16.199Z,1.50
2023-01-17T18:21:43.431Z,1.50
2023-01-17T18:24:15.294Z,1.40
2023-01-17T18:26:44.344Z,1.40
2023-01-17T18:29:15.629Z,1.40
2023-01-17T18:31:43.930Z,1.40
2023-01-17T18:34:15.841Z,1.40
2023-01-17T18:36:43.253Z,1.40
2023-01-17T18:39:30.337Z,1.40
2023-01-17T18:41:57.836Z,1.40
2023-01-17T18:44:25.165Z,1.40
2023-01-17T18:46:54.196Z,1.40
2023-01-17T18:49:21.606Z,1.40
2023-01-17T18:51:50.925Z,1.40
2023-01-17T18:54:19.122Z,1.40
2023-01-17T18:56:45.790Z,1.40
2023-01-17T18:59:18.181Z,1.20
2023-01-17T19:01:45.392Z,1.30
2023-01-17T19:04:14.068Z,1.30
2023-01-17T19:06:43.130Z,1.30
2023-01-17T19:09:13.273Z,1.40
2023-01-17T19:11:40.282Z,1.40
2023-01-17T19:14:07.342Z,1.50
2023-01-17T19:16:38.960Z,1.40
2023-01-17T19:19:08.419Z,1.20
2023-01-17T19:21:35.725Z,1.20
2023-01-17T19:24:02.881Z,1.20
2023-01-17T19:26:30.068Z,1.30
2023-01-17T19:28:58.854Z,1.30
2023-01-17T19:31:30.708Z,1.30
2023-01-17T19:33:58.678Z,1.30
2023-01-17T19:36:29.248Z,1.40
2023-01-17T19:39:04.370Z,1.40
2023-01-17T19:41:32.546Z,1.40
2023-01-17T19:44:09.961Z,1.40
2023-01-17T19:46:37.188Z,1.40
2023-01-17T19:49:06.868Z,1.50
2023-01-17T19:51:33.725Z,1.40
2023-01-17T19:54:01.784Z,1.30
2023-01-17T19:56:29.858Z,1.30
2023-01-17T19:59:00.639Z,1.30
2023-01-17T20:01:30.078Z,1.30
2023-01-17T20:03:58.422Z,1.40
2023-01-17T20:06:29.012Z,1.30
2023-01-17T20:08:56.601Z,1.30
2023-01-17T20:11:25.219Z,1.20
2023-01-17T20:13:54.165Z,1.20
2023-01-17T20:16:21.805Z,1.20
2023-01-17T20:18:49.080Z,1.00
2023-01-17T20:21:19.214Z,1.10
2023-01-17T20:23:47.272Z,1.00
2023-01-17T20:26:15.822Z,1.00
2023-01-17T20:28:45.062Z,1.00
2023-01-17T20:31:14.012Z,1.00
2023-01-17T20:33:43.118Z,1.00
2023-01-17T20:36:12.589Z,1.10
2023-01-17T20:38:45.582Z,1.10
2023-01-17T20:41:21.288Z,1.00
2023-01-17T20:43:51.018Z,1.00
2023-01-17T20:46:19.047Z,0.90
2023-01-17T20:48:51.180Z,0.80
2023-01-17T20:51:19.145Z,0.90
2023-01-17T20:53:47.114Z,1.00
2023-01-17T20:56:15.490Z,0.80
2023-01-17T20:58:42.635Z,0.90
2023-01-17T21:01:11.447Z,1.00
2023-01-17T21:03:39.194Z,0.90
2023-01-17T21:06:08.791Z,0.80
2023-01-17T21:08:38.402Z,0.90
2023-01-17T21:11:06.304Z,1.10
2023-01-17T21:13:33.360Z,1.00
2023-01-17T21:16:00.044Z,1.00
2023-01-17T21:18:28.146Z,1.00
2023-01-17T21:20:54.793Z,1.00
2023-01-17T21:23:23.423Z,1.00
2023-01-17T21:25:56.612Z,1.00
2023-01-17T21:28:25.651Z,0.90
2023-01-17T21:30:53.287Z,0.80
2023-01-17T21:33:21.448Z,1.00
2023-01-17T21:35:48.438Z,1.10
2023-01-17T21:38:16.040Z,1.00
2023-01-17T21:40:43.655Z,0.90
2023-01-17T21:43:10.794Z,0.80
2023-01-17T21:45:41.497Z,0.80
2023-01-17T21:48:14.581Z,1.00
2023-01-17T21:50:41.316Z,1.00
2023-01-17T21:53:09.994Z,0.90
2023-01-17T21:55:58.038Z,0.80
2023-01-17T21:58:43.200Z,0.70
2023-01-17T22:01:18.132Z,0.80
2023-01-17T22:03:57.981Z,0.80
2023-01-17T22:06:27.776Z,0.70
2023-01-17T22:08:55.203Z,0.80
2023-01-17T22:11:24.556Z,0.90
2023-01-17T22:13:51.458Z,0.90
2023-01-17T22:16:21.347Z,0.80
2023-01-17T22:18:48.053Z,0.70
2023-01-17T22:21:20.484Z,0.90
2023-01-17T22:23:52.342Z,0.70
2023-01-17T22:26:20.879Z,0.80
2023-01-17T22:28:47.601Z,0.90
2023-01-17T22:31:25.534Z,0.90
2023-01-17T22:33:57.960Z,0.90
2023-01-17T22:36:25.368Z,0.80
2023-01-17T22:51:38.757Z,0.30
2023-01-17T22:54:05.575Z,0.30
2023-01-17T22:56:33.385Z,0.30
2023-01-17T22:59:01.266Z,0.40
2023-01-17T23:01:30.695Z,0.30
2023-01-17T23:04:00.216Z,0.30
2023-01-17T23:06:33.147Z,0.30
2023-01-17T23:09:02.500Z,0.40
2023-01-17T23:11:49.746Z,0.40
2023-01-17T23:14:29.598Z,0.40
2023-01-17T23:17:19.942Z,0.40
2023-01-17T23:19:49.466Z,0.50
2023-01-17T23:22:21.469Z,0.50
2023-01-17T23:25:06.303Z,0.60
2023-01-17T23:28:00.333Z,0.80
2023-01-17T23:30:35.969Z,0.70
2023-01-17T23:33:07.023Z,0.80
2023-01-17T23:35:41.255Z,0.80
2023-01-17T23:38:29.114Z,0.80
2023-01-17T23:41:23.001Z,0.80
2023-01-17T23:43:56.634Z,0.60
2023-01-17T23:46:25.371Z,0.60
2023-01-17T23:48:52.207Z,0.50
2023-01-17T23:51:18.972Z,0.60
2023-01-17T23:53:45.645Z,0.70
2023-01-17T23:56:23.742Z,0.60
2023-01-17T23:58:50.632Z,0.70
